sensor_id;sensor_type;location;lat;lon;timestamp;temperature;humidity
17385;DHT22;8810;48.680;8.894;2022-11-12T00:00:08;5.20;99.90
17385;DHT22;8810;48.680;8.894;2022-11-12T00:02:35;5.20;99.90
17385;DHT22;8810;48.680;8.894;2022-11-12T00:05:02;5.20;99.90
17385;DHT22;8810;48.680;8.894;2022-11-12T00:07:28;5.20;99.90
17385;DHT22;8810;48.680;8.894;2022-11-12T00:09:55;5.20;99.90
17385;DHT22;8810;48.680;8.894;2022-11-12T00:12:23;5.20;99.90
17385;DHT22;8810;48.680;8.894;2022-11-12T00:14:50;5.20;99.90
17385;DHT22;8810;48.680;8.894;2022-11-12T00:17:17;5.20;99.90
17385;DHT22;8810;48.680;8.894;2022-11-12T00:19:44;5.20;99.90
17385;DHT22;8810;48.680;8.894;2022-11-12T00:22:11;5.20;99.90
17385;DHT22;8810;48.680;8.894;2022-11-12T00:24:37;5.20;99.90
17385;DHT22;8810;48.680;8.894;2022-11-12T00:27:04;5.10;99.90
17385;DHT22;8810;48.680;8.894;2022-11-12T00:29:32;5.10;99.90
17385;DHT22;8810;48.680;8.894;2022-11-12T00:31:59;5.10;99.90
17385;DHT22;8810;48.680;8.894;2022-11-12T00:34:26;5.10;99.90
17385;DHT22;8810;48.680;8.894;2022-11-12T00:36:53;5.10;99.90
17385;DHT22;8810;48.680;8.894;2022-11-12T00:39:19;5.00;99.90
17385;DHT22;8810;48.680;8.894;2022-11-12T00:41:46;5.00;99.90
17385;DHT22;8810;48.680;8.894;2022-11-12T00:44:13;4.90;99.90
17385;DHT22;8810;48.680;8.894;2022-11-12T00:46:41;4.90;99.90
17385;DHT22;8810;48.680;8.894;2022-11-12T00:49:08;5.00;99.90
17385;DHT22;8810;48.680;8.894;2022-11-12T00:51:35;5.00;99.90
17385;DHT22;8810;48.680;8.894;2022-11-12T00:54:02;4.90;99.90
17385;DHT22;8810;48.680;8.894;2022-11-12T00:56:29;4.90;99.90
17385;DHT22;8810;48.680;8.894;2022-11-12T00:58:56;4.90;99.90
17385;DHT22;8810;48.680;8.894;2022-11-12T01:01:23;4.90;99.90
17385;DHT22;8810;48.680;8.894;2022-11-12T01:03:52;4.90;99.90
17385;DHT22;8810;48.680;8.894;2022-11-12T01:06:21;4.90;99.90
17385;DHT22;8810;48.680;8.894;2022-11-12T01:08:48;4.90;99.90
17385;DHT22;8810;48.680;8.894;2022-11-12T01:11:17;4.90;99.90
17385;DHT22;8810;48.680;8.894;2022-11-12T01:13:45;4.80;99.90
17385;DHT22;8810;48.680;8.894;2022-11-12T01:16:15;4.80;99.90
17385;DHT22;8810;48.680;8.894;2022-11-12T01:18:44;4.70;99.90
17385;DHT22;8810;48.680;8.894;2022-11-12T01:21:13;4.70;99.90
17385;DHT22;8810;48.680;8.894;2022-11-12T01:23:41;4.70;99.90
17385;DHT22;8810;48.680;8.894;2022-11-12T01:26:09;4.60;99.90
17385;DHT22;8810;48.680;8.894;2022-11-12T01:28:37;4.60;99.90
17385;DHT22;8810;48.680;8.894;2022-11-12T01:31:12;4.50;99.90
17385;DHT22;8810;48.680;8.894;2022-11-12T01:33:39;4.40;99.90
17385;DHT22;8810;48.680;8.894;2022-11-12T01:36:06;4.40;99.90
17385;DHT22;8810;48.680;8.894;2022-11-12T01:38:35;4.30;99.90
17385;DHT22;8810;48.680;8.894;2022-11-12T01:41:02;4.30;99.90
17385;DHT22;8810;48.680;8.894;2022-11-12T01:43:30;4.30;99.90
17385;DHT22;8810;48.680;8.894;2022-11-12T01:45:57;4.30;99.90
17385;DHT22;8810;48.680;8.894;2022-11-12T01:48:27;4.20;99.90
17385;DHT22;8810;48.680;8.894;2022-11-12T01:50:56;4.20;99.90
17385;DHT22;8810;48.680;8.894;2022-11-12T01:53:26;4.10;99.90
17385;DHT22;8810;48.680;8.894;2022-11-12T01:55:55;4.10;99.90
17385;DHT22;8810;48.680;8.894;2022-11-12T01:58:25;4.10;99.90
17385;DHT22;8810;48.680;8.894;2022-11-12T02:00:53;4.10;99.90
17385;DHT22;8810;48.680;8.894;2022-11-12T02:03:22;4.00;99.90
17385;DHT22;8810;48.680;8.894;2022-11-12T02:05:52;4.00;99.90
17385;DHT22;8810;48.680;8.894;2022-11-12T02:08:21;3.90;99.90
17385;DHT22;8810;48.680;8.894;2022-11-12T02:10:49;3.80;99.90
17385;DHT22;8810;48.680;8.894;2022-11-12T02:13:18;3.80;99.90
17385;DHT22;8810;48.680;8.894;2022-11-12T02:16:03;3.70;99.90
17385;DHT22;8810;48.680;8.894;2022-11-12T02:18:30;3.70;99.90
17385;DHT22;8810;48.680;8.894;2022-11-12T02:21:00;3.60;99.90
17385;DHT22;8810;48.680;8.894;2022-11-12T02:23:30;3.60;99.90
17385;DHT22;8810;48.680;8.894;2022-11-12T02:25:58;3.60;99.90
17385;DHT22;8810;48.680;8.894;2022-11-12T02:28:25;3.60;99.90
17385;DHT22;8810;48.680;8.894;2022-11-12T02:30:52;3.50;99.90
17385;DHT22;8810;48.680;8.894;2022-11-12T02:33:19;3.50;99.90
17385;DHT22;8810;48.680;8.894;2022-11-12T02:35:46;3.50;99.90
17385;DHT22;8810;48.680;8.894;2022-11-12T02:38:13;3.50;99.90
17385;DHT22;8810;48.680;8.894;2022-11-12T02:40:41;3.40;99.90
17385;DHT22;8810;48.680;8.894;2022-11-12T02:43:08;3.30;99.90
17385;DHT22;8810;48.680;8.894;2022-11-12T02:45:34;3.30;99.90
17385;DHT22;8810;48.680;8.894;2022-11-12T02:48:01;3.20;99.90
17385;DHT22;8810;48.680;8.894;2022-11-12T02:50:28;3.20;99.90
17385;DHT22;8810;48.680;8.894;2022-11-12T02:52:55;3.20;99.90
17385;DHT22;8810;48.680;8.894;2022-11-12T02:55:22;3.10;99.90
17385;DHT22;8810;48.680;8.894;2022-11-12T02:57:50;3.10;99.90
17385;DHT22;8810;48.680;8.894;2022-11-12T03:00:17;3.10;99.90
17385;DHT22;8810;48.680;8.894;2022-11-12T03:02:43;3.00;99.90
17385;DHT22;8810;48.680;8.894;2022-11-12T03:05:23;2.90;99.90
17385;DHT22;8810;48.680;8.894;2022-11-12T03:07:50;2.90;99.90
17385;DHT22;8810;48.680;8.894;2022-11-12T03:10:20;2.90;99.90
17385;DHT22;8810;48.680;8.894;2022-11-12T03:12:47;2.90;99.90
17385;DHT22;8810;48.680;8.894;2022-11-12T03:15:15;2.80;99.90
17385;DHT22;8810;48.680;8.894;2022-11-12T03:17:43;2.80;99.90
17385;DHT22;8810;48.680;8.894;2022-11-12T03:20:10;2.70;99.90
17385;DHT22;8810;48.680;8.894;2022-11-12T03:22:37;2.70;99.90
17385;DHT22;8810;48.680;8.894;2022-11-12T03:25:05;2.60;99.90
17385;DHT22;8810;48.680;8.894;2022-11-12T03:27:32;2.60;99.90
17385;DHT22;8810;48.680;8.894;2022-11-12T03:29:59;2.60;99.90
17385;DHT22;8810;48.680;8.894;2022-11-12T03:32:28;2.60;99.90
17385;DHT22;8810;48.680;8.894;2022-11-12T03:34:54;2.50;99.90
17385;DHT22;8810;48.680;8.894;2022-11-12T03:37:21;2.50;99.90
17385;DHT22;8810;48.680;8.894;2022-11-12T03:39:48;2.60;99.90
17385;DHT22;8810;48.680;8.894;2022-11-12T03:42:15;2.60;99.90
17385;DHT22;8810;48.680;8.894;2022-11-12T03:44:41;2.60;99.90
17385;DHT22;8810;48.680;8.894;2022-11-12T03:47:08;2.60;99.90
17385;DHT22;8810;48.680;8.894;2022-11-12T03:49:36;2.70;99.90
17385;DHT22;8810;48.680;8.894;2022-11-12T03:52:03;2.70;99.90
17385;DHT22;8810;48.680;8.894;2022-11-12T03:54:30;2.70;99.90
17385;DHT22;8810;48.680;8.894;2022-11-12T03:56:57;2.70;99.90
17385;DHT22;8810;48.680;8.894;2022-11-12T03:59:24;2.70;99.90
17385;DHT22;8810;48.680;8.894;2022-11-12T04:01:50;2.70;99.90
17385;DHT22;8810;48.680;8.894;2022-11-12T04:04:17;2.70;99.90
17385;DHT22;8810;48.680;8.894;2022-11-12T04:06:45;2.70;99.90
17385;DHT22;8810;48.680;8.894;2022-11-12T04:09:30;2.70;99.90
17385;DHT22;8810;48.680;8.894;2022-11-12T04:11:57;2.70;99.90
17385;DHT22;8810;48.680;8.894;2022-11-12T04:14:44;2.70;99.90
17385;DHT22;8810;48.680;8.894;2022-11-12T04:17:09;2.70;99.90
17385;DHT22;8810;48.680;8.894;2022-11-12T04:19:54;2.70;99.90
17385;DHT22;8810;48.680;8.894;2022-11-12T04:22:45;2.70;99.90
17385;DHT22;8810;48.680;8.894;2022-11-12T04:25:12;2.70;99.90
17385;DHT22;8810;48.680;8.894;2022-11-12T04:27:56;2.70;99.90
17385;DHT22;8810;48.680;8.894;2022-11-12T04:30:23;2.70;99.90
17385;DHT22;8810;48.680;8.894;2022-11-12T04:32:50;2.70;99.90
17385;DHT22;8810;48.680;8.894;2022-11-12T04:35:19;2.70;99.90
17385;DHT22;8810;48.680;8.894;2022-11-12T04:37:48;2.80;99.90
17385;DHT22;8810;48.680;8.894;2022-11-12T04:40:17;2.80;99.90
17385;DHT22;8810;48.680;8.894;2022-11-12T04:43:03;2.70;99.90
17385;DHT22;8810;48.680;8.894;2022-11-12T04:45:49;2.70;99.90
17385;DHT22;8810;48.680;8.894;2022-11-12T04:48:17;2.70;99.90
17385;DHT22;8810;48.680;8.894;2022-11-12T04:50:47;2.70;99.90
17385;DHT22;8810;48.680;8.894;2022-11-12T04:53:16;2.70;99.90
17385;DHT22;8810;48.680;8.894;2022-11-12T04:55:43;2.70;99.90
17385;DHT22;8810;48.680;8.894;2022-11-12T04:58:10;2.70;99.90
17385;DHT22;8810;48.680;8.894;2022-11-12T05:00:37;2.70;99.90
17385;DHT22;8810;48.680;8.894;2022-11-12T05:03:03;2.70;99.90
17385;DHT22;8810;48.680;8.894;2022-11-12T05:05:30;2.80;99.90
17385;DHT22;8810;48.680;8.894;2022-11-12T05:07:58;2.80;99.90
17385;DHT22;8810;48.680;8.894;2022-11-12T05:10:26;2.80;99.90
17385;DHT22;8810;48.680;8.894;2022-11-12T05:12:53;2.90;99.90
17385;DHT22;8810;48.680;8.894;2022-11-12T05:15:20;2.90;99.90
17385;DHT22;8810;48.680;8.894;2022-11-12T05:17:47;2.90;99.90
17385;DHT22;8810;48.680;8.894;2022-11-12T05:20:15;2.90;99.90
17385;DHT22;8810;48.680;8.894;2022-11-12T05:22:42;2.90;99.90
17385;DHT22;8810;48.680;8.894;2022-11-12T05:25:09;2.90;99.90
17385;DHT22;8810;48.680;8.894;2022-11-12T05:27:37;2.90;99.90
17385;DHT22;8810;48.680;8.894;2022-11-12T05:30:05;2.80;99.90
17385;DHT22;8810;48.680;8.894;2022-11-12T05:32:32;2.80;99.90
17385;DHT22;8810;48.680;8.894;2022-11-12T05:34:59;2.70;99.90
17385;DHT22;8810;48.680;8.894;2022-11-12T05:37:25;2.80;99.90
17385;DHT22;8810;48.680;8.894;2022-11-12T05:39:52;2.80;99.90
17385;DHT22;8810;48.680;8.894;2022-11-12T05:42:19;2.80;99.90
17385;DHT22;8810;48.680;8.894;2022-11-12T05:44:47;2.80;99.90
17385;DHT22;8810;48.680;8.894;2022-11-12T05:47:14;2.80;99.90
17385;DHT22;8810;48.680;8.894;2022-11-12T05:49:41;2.80;99.90
17385;DHT22;8810;48.680;8.894;2022-11-12T05:52:08;2.80;99.90
17385;DHT22;8810;48.680;8.894;2022-11-12T05:54:34;2.80;99.90
17385;DHT22;8810;48.680;8.894;2022-11-12T05:57:01;2.70;99.90
17385;DHT22;8810;48.680;8.894;2022-11-12T05:59:28;2.70;99.90
17385;DHT22;8810;48.680;8.894;2022-11-12T06:01:56;2.70;99.90
17385;DHT22;8810;48.680;8.894;2022-11-12T06:04:23;2.70;99.90
17385;DHT22;8810;48.680;8.894;2022-11-12T06:06:50;2.70;99.90
17385;DHT22;8810;48.680;8.894;2022-11-12T06:09:17;2.70;99.90
17385;DHT22;8810;48.680;8.894;2022-11-12T06:11:44;2.70;99.90
17385;DHT22;8810;48.680;8.894;2022-11-12T06:14:11;2.70;99.90
17385;DHT22;8810;48.680;8.894;2022-11-12T06:16:37;2.70;99.90
17385;DHT22;8810;48.680;8.894;2022-11-12T06:19:06;2.60;99.90
17385;DHT22;8810;48.680;8.894;2022-11-12T06:21:33;2.60;99.90
17385;DHT22;8810;48.680;8.894;2022-11-12T06:23:59;2.60;99.90
17385;DHT22;8810;48.680;8.894;2022-11-12T06:26:27;2.50;99.90
17385;DHT22;8810;48.680;8.894;2022-11-12T06:28:55;2.50;99.90
17385;DHT22;8810;48.680;8.894;2022-11-12T06:31:22;2.50;99.90
17385;DHT22;8810;48.680;8.894;2022-11-12T06:33:49;2.50;99.90
17385;DHT22;8810;48.680;8.894;2022-11-12T06:36:18;2.50;99.90
17385;DHT22;8810;48.680;8.894;2022-11-12T06:38:46;2.50;99.90
17385;DHT22;8810;48.680;8.894;2022-11-12T06:41:13;2.50;99.90
17385;DHT22;8810;48.680;8.894;2022-11-12T06:43:40;2.50;99.90
17385;DHT22;8810;48.680;8.894;2022-11-12T06:46:10;2.50;99.90
17385;DHT22;8810;48.680;8.894;2022-11-12T06:48:37;2.50;99.90
17385;DHT22;8810;48.680;8.894;2022-11-12T06:51:07;2.50;99.90
17385;DHT22;8810;48.680;8.894;2022-11-12T06:53:35;2.40;99.90
17385;DHT22;8810;48.680;8.894;2022-11-12T06:56:03;2.50;99.90
17385;DHT22;8810;48.680;8.894;2022-11-12T06:58:30;2.50;99.90
17385;DHT22;8810;48.680;8.894;2022-11-12T07:00:57;2.50;99.90
17385;DHT22;8810;48.680;8.894;2022-11-12T07:03:29;2.50;99.90
17385;DHT22;8810;48.680;8.894;2022-11-12T07:05:55;2.50;99.90
17385;DHT22;8810;48.680;8.894;2022-11-12T07:08:22;2.60;99.90
17385;DHT22;8810;48.680;8.894;2022-11-12T07:10:54;2.80;99.90
17385;DHT22;8810;48.680;8.894;2022-11-12T07:13:21;2.80;99.90
17385;DHT22;8810;48.680;8.894;2022-11-12T07:15:48;3.00;99.90
17385;DHT22;8810;48.680;8.894;2022-11-12T07:18:14;3.00;99.90
17385;DHT22;8810;48.680;8.894;2022-11-12T07:20:41;3.10;99.90
17385;DHT22;8810;48.680;8.894;2022-11-12T07:23:08;3.10;99.90
17385;DHT22;8810;48.680;8.894;2022-11-12T07:25:35;3.30;99.90
17385;DHT22;8810;48.680;8.894;2022-11-12T07:28:03;3.60;99.90
17385;DHT22;8810;48.680;8.894;2022-11-12T07:30:30;4.00;99.90
17385;DHT22;8810;48.680;8.894;2022-11-12T07:32:57;4.40;99.90
17385;DHT22;8810;48.680;8.894;2022-11-12T07:35:23;4.80;99.90
17385;DHT22;8810;48.680;8.894;2022-11-12T07:37:50;5.10;99.90
17385;DHT22;8810;48.680;8.894;2022-11-12T07:40:18;5.30;99.90
17385;DHT22;8810;48.680;8.894;2022-11-12T07:42:46;5.50;99.90
17385;DHT22;8810;48.680;8.894;2022-11-12T07:45:14;5.70;99.90
17385;DHT22;8810;48.680;8.894;2022-11-12T07:47:41;5.90;99.90
17385;DHT22;8810;48.680;8.894;2022-11-12T07:50:08;6.00;99.90
17385;DHT22;8810;48.680;8.894;2022-11-12T07:52:35;6.10;99.90
17385;DHT22;8810;48.680;8.894;2022-11-12T07:55:02;6.20;99.90
17385;DHT22;8810;48.680;8.894;2022-11-12T07:57:31;6.40;99.90
17385;DHT22;8810;48.680;8.894;2022-11-12T07:59:58;6.60;99.90
17385;DHT22;8810;48.680;8.894;2022-11-12T08:02:26;6.80;99.90
17385;DHT22;8810;48.680;8.894;2022-11-12T08:04:53;7.00;99.90
17385;DHT22;8810;48.680;8.894;2022-11-12T08:07:20;7.20;99.90
17385;DHT22;8810;48.680;8.894;2022-11-12T08:09:47;7.40;99.90
17385;DHT22;8810;48.680;8.894;2022-11-12T08:12:13;7.50;99.90
17385;DHT22;8810;48.680;8.894;2022-11-12T08:14:40;7.80;99.90
17385;DHT22;8810;48.680;8.894;2022-11-12T08:17:07;8.00;99.90
17385;DHT22;8810;48.680;8.894;2022-11-12T08:19:35;8.10;99.90
17385;DHT22;8810;48.680;8.894;2022-11-12T08:22:02;8.30;99.90
17385;DHT22;8810;48.680;8.894;2022-11-12T08:24:29;8.50;99.90
17385;DHT22;8810;48.680;8.894;2022-11-12T08:26:55;8.70;99.90
17385;DHT22;8810;48.680;8.894;2022-11-12T08:29:22;8.90;99.90
17385;DHT22;8810;48.680;8.894;2022-11-12T08:31:49;9.00;99.90
17385;DHT22;8810;48.680;8.894;2022-11-12T08:34:16;9.30;99.90
17385;DHT22;8810;48.680;8.894;2022-11-12T08:36:44;9.50;99.90
17385;DHT22;8810;48.680;8.894;2022-11-12T08:39:11;9.70;99.90
17385;DHT22;8810;48.680;8.894;2022-11-12T08:41:38;9.80;99.90
17385;DHT22;8810;48.680;8.894;2022-11-12T08:44:05;9.90;99.90
17385;DHT22;8810;48.680;8.894;2022-11-12T08:46:31;10.10;99.90
17385;DHT22;8810;48.680;8.894;2022-11-12T08:48:58;10.30;99.90
17385;DHT22;8810;48.680;8.894;2022-11-12T08:51:25;10.50;99.90
17385;DHT22;8810;48.680;8.894;2022-11-12T08:53:53;10.60;99.90
17385;DHT22;8810;48.680;8.894;2022-11-12T08:56:20;10.90;99.90
17385;DHT22;8810;48.680;8.894;2022-11-12T08:58:47;11.10;99.90
17385;DHT22;8810;48.680;8.894;2022-11-12T09:01:14;11.10;99.90
17385;DHT22;8810;48.680;8.894;2022-11-12T09:03:41;11.10;99.90
17385;DHT22;8810;48.680;8.894;2022-11-12T09:06:07;11.00;99.90
17385;DHT22;8810;48.680;8.894;2022-11-12T09:08:35;11.00;99.90
17385;DHT22;8810;48.680;8.894;2022-11-12T09:11:04;11.10;99.90
17385;DHT22;8810;48.680;8.894;2022-11-12T09:13:31;11.40;99.90
17385;DHT22;8810;48.680;8.894;2022-11-12T09:16:02;11.50;99.90
17385;DHT22;8810;48.680;8.894;2022-11-12T09:18:32;11.80;99.90
17385;DHT22;8810;48.680;8.894;2022-11-12T09:21:00;12.10;99.90
17385;DHT22;8810;48.680;8.894;2022-11-12T09:23:27;12.30;99.90
17385;DHT22;8810;48.680;8.894;2022-11-12T09:25:55;12.50;99.90
17385;DHT22;8810;48.680;8.894;2022-11-12T09:28:23;12.50;99.90
17385;DHT22;8810;48.680;8.894;2022-11-12T09:30:51;12.60;99.90
17385;DHT22;8810;48.680;8.894;2022-11-12T09:33:20;12.60;99.90
17385;DHT22;8810;48.680;8.894;2022-11-12T09:35:48;12.60;99.90
17385;DHT22;8810;48.680;8.894;2022-11-12T09:38:16;12.80;99.90
17385;DHT22;8810;48.680;8.894;2022-11-12T09:41:00;13.00;99.90
17385;DHT22;8810;48.680;8.894;2022-11-12T09:43:33;13.30;99.90
17385;DHT22;8810;48.680;8.894;2022-11-12T09:46:03;13.40;99.90
17385;DHT22;8810;48.680;8.894;2022-11-12T09:48:38;13.50;99.90
17385;DHT22;8810;48.680;8.894;2022-11-12T09:51:18;13.60;99.90
17385;DHT22;8810;48.680;8.894;2022-11-12T09:53:53;13.60;99.90
17385;DHT22;8810;48.680;8.894;2022-11-12T09:56:21;13.80;99.90
17385;DHT22;8810;48.680;8.894;2022-11-12T09:58:50;13.60;99.90
17385;DHT22;8810;48.680;8.894;2022-11-12T10:01:21;13.60;99.90
17385;DHT22;8810;48.680;8.894;2022-11-12T10:03:56;13.60;99.90
17385;DHT22;8810;48.680;8.894;2022-11-12T10:06:31;13.60;99.90
17385;DHT22;8810;48.680;8.894;2022-11-12T10:09:04;13.80;99.90
17385;DHT22;8810;48.680;8.894;2022-11-12T10:11:48;14.00;99.90
17385;DHT22;8810;48.680;8.894;2022-11-12T10:14:52;13.90;99.90
17385;DHT22;8810;48.680;8.894;2022-11-12T10:17:29;14.10;99.90
17385;DHT22;8810;48.680;8.894;2022-11-12T10:20:01;14.10;99.90
17385;DHT22;8810;48.680;8.894;2022-11-12T10:22:40;14.10;99.90
17385;DHT22;8810;48.680;8.894;2022-11-12T10:25:14;14.20;99.90
17385;DHT22;8810;48.680;8.894;2022-11-12T10:27:42;14.30;99.90
17385;DHT22;8810;48.680;8.894;2022-11-12T10:30:15;14.30;99.90
17385;DHT22;8810;48.680;8.894;2022-11-12T10:32:43;14.30;99.90
17385;DHT22;8810;48.680;8.894;2022-11-12T10:35:12;14.40;99.90
17385;DHT22;8810;48.680;8.894;2022-11-12T10:37:44;14.40;99.90
17385;DHT22;8810;48.680;8.894;2022-11-12T10:40:27;14.40;99.90
17385;DHT22;8810;48.680;8.894;2022-11-12T10:42:56;14.50;99.90
17385;DHT22;8810;48.680;8.894;2022-11-12T10:45:25;14.50;99.90
17385;DHT22;8810;48.680;8.894;2022-11-12T10:47:53;14.50;99.90
17385;DHT22;8810;48.680;8.894;2022-11-12T10:50:21;14.30;99.90
17385;DHT22;8810;48.680;8.894;2022-11-12T10:52:55;14.20;99.90
17385;DHT22;8810;48.680;8.894;2022-11-12T10:55:24;14.10;99.90
17385;DHT22;8810;48.680;8.894;2022-11-12T10:58:13;13.90;99.90
17385;DHT22;8810;48.680;8.894;2022-11-12T11:00:57;13.90;99.90
17385;DHT22;8810;48.680;8.894;2022-11-12T11:03:25;13.80;99.90
17385;DHT22;8810;48.680;8.894;2022-11-12T11:05:56;13.70;99.90
17385;DHT22;8810;48.680;8.894;2022-11-12T11:08:41;13.70;99.90
17385;DHT22;8810;48.680;8.894;2022-11-12T11:11:26;13.60;99.90
17385;DHT22;8810;48.680;8.894;2022-11-12T11:13:54;13.70;99.90
17385;DHT22;8810;48.680;8.894;2022-11-12T11:16:25;13.80;99.90
17385;DHT22;8810;48.680;8.894;2022-11-12T11:18:54;13.90;99.90
17385;DHT22;8810;48.680;8.894;2022-11-12T11:21:36;14.00;99.90
17385;DHT22;8810;48.680;8.894;2022-11-12T11:24:16;14.00;99.90
17385;DHT22;8810;48.680;8.894;2022-11-12T11:26:53;14.10;99.90
17385;DHT22;8810;48.680;8.894;2022-11-12T11:29:34;14.20;99.90
17385;DHT22;8810;48.680;8.894;2022-11-12T11:32:17;14.30;99.90
17385;DHT22;8810;48.680;8.894;2022-11-12T11:34:56;14.30;99.90
17385;DHT22;8810;48.680;8.894;2022-11-12T11:37:27;14.30;99.90
17385;DHT22;8810;48.680;8.894;2022-11-12T11:40:02;14.40;99.90
17385;DHT22;8810;48.680;8.894;2022-11-12T11:42:57;14.60;99.90
17385;DHT22;8810;48.680;8.894;2022-11-12T11:45:33;14.70;99.90
17385;DHT22;8810;48.680;8.894;2022-11-12T11:48:10;14.80;99.90
17385;DHT22;8810;48.680;8.894;2022-11-12T11:50:54;14.90;99.90
17385;DHT22;8810;48.680;8.894;2022-11-12T11:53:23;14.90;99.90
17385;DHT22;8810;48.680;8.894;2022-11-12T11:55:54;15.00;99.90
17385;DHT22;8810;48.680;8.894;2022-11-12T11:58:46;15.00;99.90
17385;DHT22;8810;48.680;8.894;2022-11-12T12:01:18;15.00;99.90
17385;DHT22;8810;48.680;8.894;2022-11-12T12:04:11;14.90;99.90
17385;DHT22;8810;48.680;8.894;2022-11-12T12:06:48;15.00;99.90
17385;DHT22;8810;48.680;8.894;2022-11-12T12:09:25;15.00;99.90
17385;DHT22;8810;48.680;8.894;2022-11-12T12:12:03;15.00;99.90
17385;DHT22;8810;48.680;8.894;2022-11-12T12:14:52;15.10;99.90
17385;DHT22;8810;48.680;8.894;2022-11-12T12:17:35;15.00;99.90
17385;DHT22;8810;48.680;8.894;2022-11-12T12:20:16;15.10;99.90
17385;DHT22;8810;48.680;8.894;2022-11-12T12:22:48;15.10;99.90
17385;DHT22;8810;48.680;8.894;2022-11-12T12:25:20;15.10;99.90
17385;DHT22;8810;48.680;8.894;2022-11-12T12:27:52;15.10;99.90
17385;DHT22;8810;48.680;8.894;2022-11-12T12:30:21;15.10;99.90
17385;DHT22;8810;48.680;8.894;2022-11-12T12:32:52;15.00;99.90
17385;DHT22;8810;48.680;8.894;2022-11-12T12:35:25;15.00;99.90
17385;DHT22;8810;48.680;8.894;2022-11-12T12:38:00;15.00;99.90
17385;DHT22;8810;48.680;8.894;2022-11-12T12:40:33;15.00;99.90
17385;DHT22;8810;48.680;8.894;2022-11-12T12:43:06;15.10;99.90
17385;DHT22;8810;48.680;8.894;2022-11-12T12:45:38;15.10;99.90
17385;DHT22;8810;48.680;8.894;2022-11-12T12:48:11;15.30;99.90
17385;DHT22;8810;48.680;8.894;2022-11-12T12:50:41;15.20;99.90
17385;DHT22;8810;48.680;8.894;2022-11-12T12:53:16;15.20;99.90
17385;DHT22;8810;48.680;8.894;2022-11-12T12:55:45;15.20;99.90
17385;DHT22;8810;48.680;8.894;2022-11-12T12:58:17;15.20;99.90
17385;DHT22;8810;48.680;8.894;2022-11-12T13:00:47;15.20;99.90
17385;DHT22;8810;48.680;8.894;2022-11-12T13:03:47;15.30;99.90
17385;DHT22;8810;48.680;8.894;2022-11-12T13:06:25;15.30;99.90
17385;DHT22;8810;48.680;8.894;2022-11-12T13:08:59;15.30;99.90
17385;DHT22;8810;48.680;8.894;2022-11-12T13:11:50;15.30;99.90
17385;DHT22;8810;48.680;8.894;2022-11-12T13:14:52;15.20;99.90
17385;DHT22;8810;48.680;8.894;2022-11-12T13:17:47;15.20;99.90
17385;DHT22;8810;48.680;8.894;2022-11-12T13:20:32;15.20;99.90
17385;DHT22;8810;48.680;8.894;2022-11-12T13:23:01;15.20;99.90
17385;DHT22;8810;48.680;8.894;2022-11-12T13:25:29;15.10;99.90
17385;DHT22;8810;48.680;8.894;2022-11-12T13:28:10;15.10;99.90
17385;DHT22;8810;48.680;8.894;2022-11-12T13:30:58;15.00;99.90
17385;DHT22;8810;48.680;8.894;2022-11-12T13:33:31;14.90;99.90
17385;DHT22;8810;48.680;8.894;2022-11-12T13:36:26;14.80;99.90
17385;DHT22;8810;48.680;8.894;2022-11-12T13:39:11;14.70;99.90
17385;DHT22;8810;48.680;8.894;2022-11-12T13:41:38;14.60;99.90
17385;DHT22;8810;48.680;8.894;2022-11-12T13:44:34;14.50;99.90
17385;DHT22;8810;48.680;8.894;2022-11-12T13:47:01;14.50;99.90
17385;DHT22;8810;48.680;8.894;2022-11-12T13:49:28;14.50;99.90
17385;DHT22;8810;48.680;8.894;2022-11-12T13:51:56;14.50;99.90
17385;DHT22;8810;48.680;8.894;2022-11-12T13:54:26;14.50;99.90
17385;DHT22;8810;48.680;8.894;2022-11-12T13:56:53;14.50;99.90
17385;DHT22;8810;48.680;8.894;2022-11-12T13:59:21;14.50;99.90
17385;DHT22;8810;48.680;8.894;2022-11-12T14:01:49;14.50;99.90
17385;DHT22;8810;48.680;8.894;2022-11-12T14:04:18;14.50;99.90
17385;DHT22;8810;48.680;8.894;2022-11-12T14:06:48;14.40;99.90
17385;DHT22;8810;48.680;8.894;2022-11-12T14:09:35;14.40;99.90
17385;DHT22;8810;48.680;8.894;2022-11-12T14:12:34;14.30;99.90
17385;DHT22;8810;48.680;8.894;2022-11-12T14:15:15;14.30;99.90
17385;DHT22;8810;48.680;8.894;2022-11-12T14:17:49;14.20;99.90
17385;DHT22;8810;48.680;8.894;2022-11-12T14:20:27;14.10;99.90
17385;DHT22;8810;48.680;8.894;2022-11-12T14:22:56;14.00;99.90
17385;DHT22;8810;48.680;8.894;2022-11-12T14:25:30;14.00;99.90
17385;DHT22;8810;48.680;8.894;2022-11-12T14:27:57;13.90;99.90
17385;DHT22;8810;48.680;8.894;2022-11-12T14:30:25;13.80;99.90
17385;DHT22;8810;48.680;8.894;2022-11-12T14:32:57;13.60;99.90
17385;DHT22;8810;48.680;8.894;2022-11-12T14:35:33;13.50;99.90
17385;DHT22;8810;48.680;8.894;2022-11-12T14:38:09;13.40;99.90
17385;DHT22;8810;48.680;8.894;2022-11-12T14:40:47;13.40;99.90
17385;DHT22;8810;48.680;8.894;2022-11-12T14:46:04;13.30;99.90
17385;DHT22;8810;48.680;8.894;2022-11-12T14:48:35;13.20;99.90
17385;DHT22;8810;48.680;8.894;2022-11-12T14:51:08;13.10;99.90
17385;DHT22;8810;48.680;8.894;2022-11-12T14:53:38;13.10;99.90
17385;DHT22;8810;48.680;8.894;2022-11-12T14:56:13;13.00;99.90
17385;DHT22;8810;48.680;8.894;2022-11-12T14:58:41;12.90;99.90
17385;DHT22;8810;48.680;8.894;2022-11-12T15:01:19;12.90;99.90
17385;DHT22;8810;48.680;8.894;2022-11-12T15:03:47;12.80;99.90
17385;DHT22;8810;48.680;8.894;2022-11-12T15:06:19;12.70;99.90
17385;DHT22;8810;48.680;8.894;2022-11-12T15:08:55;12.70;99.90
17385;DHT22;8810;48.680;8.894;2022-11-12T15:11:27;12.60;99.90
17385;DHT22;8810;48.680;8.894;2022-11-12T15:13:57;12.50;99.90
17385;DHT22;8810;48.680;8.894;2022-11-12T15:16:30;12.40;99.90
17385;DHT22;8810;48.680;8.894;2022-11-12T15:19:16;12.40;99.90
17385;DHT22;8810;48.680;8.894;2022-11-12T15:21:45;12.30;99.90
17385;DHT22;8810;48.680;8.894;2022-11-12T15:24:24;12.20;99.90
17385;DHT22;8810;48.680;8.894;2022-11-12T15:26:54;12.20;99.90
17385;DHT22;8810;48.680;8.894;2022-11-12T15:29:27;12.10;99.90
17385;DHT22;8810;48.680;8.894;2022-11-12T15:31:56;12.00;99.90
17385;DHT22;8810;48.680;8.894;2022-11-12T15:34:32;11.90;99.90
17385;DHT22;8810;48.680;8.894;2022-11-12T15:37:10;11.80;99.90
17385;DHT22;8810;48.680;8.894;2022-11-12T15:39:40;11.70;99.90
17385;DHT22;8810;48.680;8.894;2022-11-12T15:42:15;11.60;99.90
17385;DHT22;8810;48.680;8.894;2022-11-12T15:44:43;11.50;99.90
17385;DHT22;8810;48.680;8.894;2022-11-12T15:47:15;11.40;99.90
17385;DHT22;8810;48.680;8.894;2022-11-12T15:49:51;11.30;99.90
17385;DHT22;8810;48.680;8.894;2022-11-12T15:52:19;11.30;99.90
17385;DHT22;8810;48.680;8.894;2022-11-12T15:54:46;11.20;99.90
17385;DHT22;8810;48.680;8.894;2022-11-12T15:57:16;11.10;99.90
17385;DHT22;8810;48.680;8.894;2022-11-12T15:59:44;11.00;99.90
17385;DHT22;8810;48.680;8.894;2022-11-12T16:02:14;10.90;99.90
17385;DHT22;8810;48.680;8.894;2022-11-12T16:04:40;10.80;99.90
17385;DHT22;8810;48.680;8.894;2022-11-12T16:07:08;10.70;99.90
17385;DHT22;8810;48.680;8.894;2022-11-12T16:09:35;10.60;99.90
17385;DHT22;8810;48.680;8.894;2022-11-12T16:12:03;10.50;99.90
17385;DHT22;8810;48.680;8.894;2022-11-12T16:14:34;10.40;99.90
17385;DHT22;8810;48.680;8.894;2022-11-12T16:17:01;10.40;99.90
17385;DHT22;8810;48.680;8.894;2022-11-12T16:19:28;10.20;99.90